Observation data for Spur on 09/10/2019      Previous  Date       Current Mesonet Observations  Soil Data  Daily Summary Page  Observations in Plain Language
KSP1 100500Z 22004KT 23/20 A2997 RMK A01 T02330195  RH  084%=      5-min Rain = 0
KSP1 100505Z 22004KT 23/20 A2997 RMK A01 T02320195  RH  084%=      5-min Rain = 0
KSP1 100510Z 23004KT 23/19 A2997 RMK A01 T02310194  RH  084%=      5-min Rain = 0
KSP1 100515Z 23004KT 23/19 A2997 RMK A01 T02310193  RH  084%=      5-min Rain = 0
KSP1 100520Z 23004KT 23/19 A2997 RMK A01 T02300193  RH  084%=      5-min Rain = 0
KSP1 100525Z 22004KT 23/19 A2997 RMK A01 T02290192  RH  084%=      5-min Rain = 0
KSP1 100530Z 22003KT 23/19 A2997 RMK A01 T02290193  RH  085%=      5-min Rain = 0
KSP1 100535Z 21003KT 23/19 A2997 RMK A01 T02280193  RH  085%=      5-min Rain = 0
KSP1 100540Z 20003KT 23/19 A2997 RMK A01 T02280191  RH  085%=      5-min Rain = 0
KSP1 100545Z 20003KT 23/19 A2997 RMK A01 T02270191  RH  085%=      5-min Rain = 0
KSP1 100550Z 20003KT 23/19 A2997 RMK A01 T02270193  RH  085%=      5-min Rain = 0
KSP1 100555Z 19003KT 23/19 A2997 RMK A01 T02260193  RH  086%=      5-min Rain = 0
KSP1 100600Z 19003KT 23/19 A2997 RMK A01 T02250193  RH  086%=      5-min Rain = 0
KSP1 100605Z 20003KT 23/19 A2998 RMK A01 T02250193  RH  087%=      5-min Rain = 0
KSP1 100610Z 21004KT 22/19 A2998 RMK A01 T02240193  RH  087%=      5-min Rain = 0
KSP1 100615Z 20004KT 22/19 A2998 RMK A01 T02230190  RH  086%=      5-min Rain = 0
KSP1 100620Z 19004KT 22/19 A2998 RMK A01 T02230188  RH  085%=      5-min Rain = 0
KSP1 100625Z 19004KT 22/19 A2998 RMK A01 T02230188  RH  085%=      5-min Rain = 0
KSP1 100630Z 18003KT 22/19 A2998 RMK A01 T02220188  RH  085%=      5-min Rain = 0
KSP1 100635Z 18003KT 22/19 A2998 RMK A01 T02220187  RH  085%=      5-min Rain = 0
KSP1 100640Z 19004KT 22/19 A2998 RMK A01 T02210187  RH  086%=      5-min Rain = 0
KSP1 100645Z 19003KT 22/19 A2997 RMK A01 T02200186  RH  085%=      5-min Rain = 0
KSP1 100650Z 19003KT 22/19 A2997 RMK A01 T02210186  RH  085%=      5-min Rain = 0
KSP1 100655Z 18002KT 22/19 A2997 RMK A01 T02210186  RH  085%=      5-min Rain = 0
KSP1 100700Z 16002KT 22/19 A2997 RMK A01 T02210187  RH  086%=      5-min Rain = 0
KSP1 100705Z 14003KT 22/19 A2997 RMK A01 T02200186  RH  086%=      5-min Rain = 0
KSP1 100710Z 15003KT 22/19 A2997 RMK A01 T02190186  RH  086%=      5-min Rain = 0
KSP1 100715Z 16003KT 22/19 A2997 RMK A01 T02190186  RH  086%=      5-min Rain = 0
KSP1 100720Z 16003KT 22/19 A2997 RMK A01 T02190187  RH  086%=      5-min Rain = 0
KSP1 100725Z 16003KT 22/19 A2998 RMK A01 T02200186  RH  086%=      5-min Rain = 0
KSP1 100730Z 17002KT 22/19 A2998 RMK A01 T02200188  RH  086%=      5-min Rain = 0
KSP1 100735Z 16003KT 22/19 A2998 RMK A01 T02200188  RH  086%=      5-min Rain = 0
KSP1 100740Z 13003KT 22/19 A2998 RMK A01 T02200188  RH  086%=      5-min Rain = 0
KSP1 100745Z 14004KT 22/19 A2998 RMK A01 T02200187  RH  086%=      5-min Rain = 0
KSP1 100750Z 15003KT 22/19 A2998 RMK A01 T02190188  RH  087%=      5-min Rain = 0
KSP1 100755Z 14004KT 22/19 A2997 RMK A01 T02190188  RH  088%=      5-min Rain = 0
KSP1 100800Z 15004KT 22/19 A2997 RMK A01 T02190187  RH  087%=      5-min Rain = 0
KSP1 100805Z 16004KT 22/19 A2997 RMK A01 T02190185  RH  086%=      5-min Rain = 0
KSP1 100810Z 15004KT 22/19 A2997 RMK A01 T02190185  RH  085%=      5-min Rain = 0
KSP1 100815Z 15004KT 22/19 A2997 RMK A01 T02200186  RH  086%=      5-min Rain = 0
KSP1 100820Z 15005KT 22/19 A2997 RMK A01 T02190187  RH  087%=      5-min Rain = 0
KSP1 100825Z 16004KT 22/19 A2997 RMK A01 T02190188  RH  087%=      5-min Rain = 0
KSP1 100830Z 18004KT 22/19 A2997 RMK A01 T02200187  RH  086%=      5-min Rain = 0
KSP1 100835Z 18004KT 22/19 A2997 RMK A01 T02210187  RH  086%=      5-min Rain = 0
KSP1 100840Z 18006KT 22/19 A2998 RMK A01 T02220186  RH  085%=      5-min Rain = 0
KSP1 100845Z 16006KT 22/19 A2998 RMK A01 T02220185  RH  084%=      5-min Rain = 0
KSP1 100850Z 16007KT 22/19 A2998 RMK A01 T02210185  RH  084%=      5-min Rain = 0
KSP1 100855Z 15006KT 22/19 A2998 RMK A01 T02210186  RH  085%=      5-min Rain = 0
KSP1 100900Z 16005KT 22/19 A2998 RMK A01 T02200186  RH  086%=      5-min Rain = 0
KSP1 100905Z 16004KT 22/19 A2998 RMK A01 T02200186  RH  086%=      5-min Rain = 0
KSP1 100910Z 15004KT 22/19 A2998 RMK A01 T02200186  RH  086%=      5-min Rain = 0
KSP1 100915Z 16003KT 22/19 A2998 RMK A01 T02200186  RH  086%=      5-min Rain = 0
KSP1 100920Z 16003KT 22/19 A2998 RMK A01 T02200187  RH  086%=      5-min Rain = 0
KSP1 100925Z 16002KT 22/19 A2999 RMK A01 T02200187  RH  086%=      5-min Rain = 0
KSP1 100930Z 16002KT 22/19 A2999 RMK A01 T02200187  RH  086%=      5-min Rain = 0
KSP1 100935Z 18002KT 22/19 A2999 RMK A01 T02200188  RH  087%=      5-min Rain = 0
KSP1 100940Z 18001KT 22/19 A2999 RMK A01 T02200188  RH  087%=      5-min Rain = 0
KSP1 100945Z 19002KT 22/19 A2999 RMK A01 T02200189  RH  087%=      5-min Rain = 0
KSP1 100950Z 18003KT 22/19 A2999 RMK A01 T02200188  RH  087%=      5-min Rain = 0
KSP1 100955Z 18003KT 22/19 A2999 RMK A01 T02200189  RH  087%=      5-min Rain = 0
KSP1 101000Z 18003KT 22/19 A30 RMK A01 T02190190  RH  088%=      5-min Rain = 0
KSP1 101005Z 17002KT 22/19 A30 RMK A01 T02190190  RH  088%=      5-min Rain = 0
KSP1 101010Z 18003KT 22/19 A30 RMK A01 T02180190  RH  089%=      5-min Rain = 0
KSP1 101015Z 17003KT 22/19 A30 RMK A01 T02170191  RH  090%=      5-min Rain = 0
KSP1 101020Z 18002KT 22/19 A30 RMK A01 T02160191  RH  090%=      5-min Rain = 0
KSP1 101025Z 18002KT 22/19 A30 RMK A01 T02160191  RH  090%=      5-min Rain = 0
KSP1 101030Z 18002KT 22/19 A30 RMK A01 T02160191  RH  091%=      5-min Rain = 0
KSP1 101035Z 17002KT 22/19 A30 RMK A01 T02160191  RH  091%=      5-min Rain = 0
KSP1 101040Z 16002KT 22/19 A30 RMK A01 T02150191  RH  091%=      5-min Rain = 0
KSP1 101045Z 15003KT 22/19 A3001 RMK A01 T02150190  RH  091%=      5-min Rain = 0
KSP1 101050Z 16003KT 22/19 A3001 RMK A01 T02160190  RH  090%=      5-min Rain = 0
KSP1 101055Z 16002KT 22/19 A3001 RMK A01 T02160190  RH  090%=      5-min Rain = 0
KSP1 101100Z 15003KT 22/19 A3001 RMK A01 T02160190  RH  090%=      5-min Rain = 0
KSP1 101105Z 14002KT 22/19 A3001 RMK A01 T02160190  RH  090%=      5-min Rain = 0
KSP1 101110Z 15002KT 22/19 A3001 RMK A01 T02160190  RH  090%=      5-min Rain = 0
KSP1 101115Z 15003KT 22/19 A3001 RMK A01 T02160189  RH  089%=      5-min Rain = 0
KSP1 101120Z 16002KT 22/19 A3001 RMK A01 T02160189  RH  090%=      5-min Rain = 0
KSP1 101125Z 15003KT 22/19 A3001 RMK A01 T02150189  RH  090%=      5-min Rain = 0
KSP1 101130Z 15003KT 22/19 A3001 RMK A01 T02150189  RH  090%=      5-min Rain = 0
KSP1 101135Z 15004KT 22/19 A3001 RMK A01 T02150188  RH  090%=      5-min Rain = 0
KSP1 101140Z 16004KT 22/19 A3001 RMK A01 T02150187  RH  089%=      5-min Rain = 0
KSP1 101145Z 15004KT 22/19 A3001 RMK A01 T02160187  RH  088%=      5-min Rain = 0
KSP1 101150Z 15004KT 22/19 A3001 RMK A01 T02160187  RH  088%=      5-min Rain = 0
KSP1 101155Z 15004KT 22/19 A3001 RMK A01 T02160186  RH  088%=      5-min Rain = 0
KSP1 101200Z 14004KT 22/19 A3001 RMK A01 T02160187  RH  088%=      5-min Rain = 0
KSP1 101205Z 15005KT 22/19 A3002 RMK A01 T02150186  RH  088%=      5-min Rain = 0
KSP1 101210Z 15004KT 22/19 A3002 RMK A01 T02150187  RH  089%=      5-min Rain = 0
KSP1 101215Z 15004KT 22/19 A3002 RMK A01 T02150187  RH  089%=      5-min Rain = 0
KSP1 101220Z 15003KT 22/19 A3002 RMK A01 T02150186  RH  088%=      5-min Rain = 0
KSP1 101225Z 14003KT 22/19 A3002 RMK A01 T02150187  RH  089%=      5-min Rain = 0
KSP1 101230Z 15003KT 22/19 A3003 RMK A01 T02150186  RH  088%=      5-min Rain = 0
KSP1 101235Z 15002KT 22/19 A3003 RMK A01 T02150186  RH  088%=      5-min Rain = 0
KSP1 101240Z 15002KT 22/19 A3003 RMK A01 T02150186  RH  088%=      5-min Rain = 0
KSP1 101245Z 16002KT 22/19 A3003 RMK A01 T02160186  RH  088%=      5-min Rain = 0
KSP1 101250Z 18001KT 22/19 A3003 RMK A01 T02160187  RH  088%=      5-min Rain = 0
KSP1 101255Z 18001KT 22/19 A3003 RMK A01 T02180188  RH  088%=      5-min Rain = 0
KSP1 101300Z 17002KT 22/19 A3003 RMK A01 T02200188  RH  086%=      5-min Rain = 0
KSP1 101305Z 17002KT 22/19 A3004 RMK A01 T02200187  RH  086%=      5-min Rain = 0
KSP1 101310Z 18002KT 22/19 A3004 RMK A01 T02210187  RH  086%=      5-min Rain = 0
KSP1 101315Z 19003KT 22/19 A3004 RMK A01 T02220188  RH  086%=      5-min Rain = 0
KSP1 101320Z 16002KT 22/19 A3004 RMK A01 T02230188  RH  085%=      5-min Rain = 0
KSP1 101325Z 15003KT 22/19 A3005 RMK A01 T02240187  RH  084%=      5-min Rain = 0
KSP1 101330Z 14004KT 23/19 A3005 RMK A01 T02250188  RH  084%=      5-min Rain = 0
KSP1 101335Z 14004KT 22/19 A3005 RMK A01 T02240187  RH  084%=      5-min Rain = 0
KSP1 101340Z 14003KT 22/19 A3005 RMK A01 T02240187  RH  084%=      5-min Rain = 0
KSP1 101345Z 15003KT 23/19 A3005 RMK A01 T02250188  RH  084%=      5-min Rain = 0
KSP1 101350Z 15003KT 23/19 A3005 RMK A01 T02260188  RH  083%=      5-min Rain = 0
KSP1 101355Z 15004KT 23/19 A3005 RMK A01 T02270188  RH  083%=      5-min Rain = 0
KSP1 101400Z 15004KT 23/19 A3005 RMK A01 T02280189  RH  083%=      5-min Rain = 0
KSP1 101405Z 15005KT 23/19 A3005 RMK A01 T02290188  RH  082%=      5-min Rain = 0
KSP1 101410Z 16004KT 23/19 A3005 RMK A01 T02300188  RH  082%=      5-min Rain = 0
KSP1 101415Z 17005KT 23/19 A3005 RMK A01 T02320187  RH  080%=      5-min Rain = 0
KSP1 101420Z 17006KT 23/19 A3005 RMK A01 T02330187  RH  079%=      5-min Rain = 0
KSP1 101425Z 17005KT 23/19 A3006 RMK A01 T02340188  RH  080%=      5-min Rain = 0
KSP1 101430Z 19006KT 24/19 A3006 RMK A01 T02370188  RH  079%=      5-min Rain = 0
KSP1 101435Z 19006KT 24/19 A3006 RMK A01 T02390188  RH  078%=      5-min Rain = 0
KSP1 101440Z 19007KT 24/19 A3006 RMK A01 T02400188  RH  077%=      5-min Rain = 0
KSP1 101445Z 20009KT 24/19 A3006 RMK A01 T02400188  RH  077%=      5-min Rain = 0
KSP1 101450Z 20009KT 24/19 A3006 RMK A01 T02410188  RH  076%=      5-min Rain = 0
KSP1 101455Z 20008G13KT 24/19 A3006 RMK A01 T02430190  RH  076%=      5-min Rain = 0
KSP1 101500Z 20009KT 24/19 A3006 RMK A01 T02440190  RH  076%=      5-min Rain = 0
KSP1 101505Z 20010G15KT 25/19 A3007 RMK A01 T02450190  RH  075%=      5-min Rain = 0
KSP1 101510Z 20011KT 25/19 A3007 RMK A01 T02470190  RH  075%=      5-min Rain = 0
KSP1 101515Z 20011KT 25/19 A3007 RMK A01 T02490191  RH  074%=      5-min Rain = 0
KSP1 101520Z 20009G14KT 25/19 A3007 RMK A01 T02510193  RH  074%=      5-min Rain = 0
KSP1 101525Z 20009G14KT 26/19 A3007 RMK A01 T02550194  RH  073%=      5-min Rain = 0
KSP1 101530Z 20011KT 26/19 A3007 RMK A01 T02560193  RH  072%=      5-min Rain = 0
KSP1 101535Z 20008G13KT 26/20 A3007 RMK A01 T02580195  RH  073%=      5-min Rain = 0
KSP1 101540Z 20010G15KT 26/20 A3007 RMK A01 T02600195  RH  071%=      5-min Rain = 0
KSP1 101545Z 21013KT 26/19 A3007 RMK A01 T02600193  RH  071%=      5-min Rain = 0
KSP1 101550Z 21011KT 26/19 A3007 RMK A01 T02590194  RH  071%=      5-min Rain = 0
KSP1 101555Z 21010G17KT 26/19 A3007 RMK A01 T02600194  RH  071%=      5-min Rain = 0
KSP1 101600Z 22011G17KT 26/20 A3007 RMK A01 T02630196  RH  070%=      5-min Rain = 0
KSP1 101605Z 22012G17KT 27/20 A3007 RMK A01 T02650196  RH  069%=      5-min Rain = 0
KSP1 101610Z 21010KT 27/20 A3007 RMK A01 T02710197  RH  068%=      5-min Rain = 0
KSP1 101615Z 21012KT 27/20 A3007 RMK A01 T02710196  RH  067%=      5-min Rain = 0
KSP1 101620Z 21011G16KT 27/20 A3007 RMK A01 T02710197  RH  068%=      5-min Rain = 0
KSP1 101625Z 21013G20KT 28/20 A3007 RMK A01 T02780198  RH  065%=      5-min Rain = 0
KSP1 101630Z 21012G19KT 28/20 A3007 RMK A01 T02790197  RH  065%=      5-min Rain = 0
KSP1 101635Z 20013KT 28/20 A3007 RMK A01 T02760196  RH  065%=      5-min Rain = 0
KSP1 101640Z 20012KT 28/19 A3007 RMK A01 T02780194  RH  064%=      5-min Rain = 0
KSP1 101645Z 20011G17KT 28/19 A3007 RMK A01 T02780194  RH  064%=      5-min Rain = 0
KSP1 101650Z 20012G17KT 28/19 A3007 RMK A01 T02810193  RH  062%=      5-min Rain = 0
KSP1 101655Z 20011KT 28/19 A3007 RMK A01 T02810194  RH  062%=      5-min Rain = 0
KSP1 101700Z 18010KT 28/19 A3007 RMK A01 T02800192  RH  062%=      5-min Rain = 0
KSP1 101705Z 19011G17KT 28/19 A3007 RMK A01 T02820191  RH  061%=      5-min Rain = 0
KSP1 101710Z 19011G16KT 28/19 A3006 RMK A01 T02840191  RH  060%=      5-min Rain = 0
KSP1 101715Z 19010G16KT 29/19 A3006 RMK A01 T02920193  RH  058%=      5-min Rain = 0
KSP1 101720Z 21012G17KT 29/19 A3006 RMK A01 T02930193  RH  058%=      5-min Rain = 0
KSP1 101725Z 22010G16KT 29/19 A3006 RMK A01 T02900191  RH  058%=      5-min Rain = 0
KSP1 101730Z 20013G18KT 30/19 A3006 RMK A01 T02960187  RH  055%=      5-min Rain = 0
KSP1 101735Z 19009G16KT 30/18 A3006 RMK A01 T02950184  RH  054%=      5-min Rain = 0
KSP1 101740Z 18012G18KT 29/18 A3006 RMK A01 T02940181  RH  053%=      5-min Rain = 0
KSP1 101745Z 21011G16KT 29/19 A3006 RMK A01 T02920185  RH  056%=      5-min Rain = 0
KSP1 101750Z 19011G16KT 29/18 A3005 RMK A01 T02930182  RH  054%=      5-min Rain = 0
KSP1 101755Z 18010G15KT 29/18 A3005 RMK A01 T02920183  RH  055%=      5-min Rain = 0
KSP1 101800Z 20010KT 29/18 A3005 RMK A01 T02930184  RH  055%=      5-min Rain = 0
KSP1 101805Z 21011G16KT 29/18 A3005 RMK A01 T02930179  RH  053%=      5-min Rain = 0
KSP1 101810Z 18010G15KT 30/18 A3005 RMK A01 T02990179  RH  051%=      5-min Rain = 0
KSP1 101815Z 18010G16KT 30/18 A3004 RMK A01 T03000179  RH  051%=      5-min Rain = 0
KSP1 101820Z 17011KT 30/18 A3004 RMK A01 T03010175  RH  049%=      5-min Rain = 0
KSP1 101825Z 19010G15KT 30/18 A3004 RMK A01 T03000178  RH  050%=      5-min Rain = 0
KSP1 101830Z 20011G17KT 30/18 A3004 RMK A01 T03040175  RH  048%=      5-min Rain = 0
KSP1 101835Z 19010G17KT 31/18 A3004 RMK A01 T03070176  RH  048%=      5-min Rain = 0
KSP1 101840Z 18011G16KT 31/17 A3004 RMK A01 T03130174  RH  046%=      5-min Rain = 0
KSP1 101845Z 18011G17KT 31/17 A3004 RMK A01 T03140171  RH  044%=      5-min Rain = 0
KSP1 101850Z 18012G17KT 31/17 A3004 RMK A01 T03130166  RH  043%=      5-min Rain = 0
KSP1 101855Z 21013G18KT 31/17 A3004 RMK A01 T03130172  RH  045%=      5-min Rain = 0
KSP1 101900Z 21013G20KT 31/17 A3003 RMK A01 T03130168  RH  044%=      5-min Rain = 0
KSP1 101905Z 22015G22KT 32/17 A3003 RMK A01 T03170165  RH  042%=      5-min Rain = 0
KSP1 101910Z 19011G16KT 32/17 A3003 RMK A01 T03180166  RH  042%=      5-min Rain = 0
KSP1 101915Z 19014G19KT 32/17 A3003 RMK A01 T03180172  RH  044%=      5-min Rain = 0
KSP1 101920Z 19011G16KT 31/17 A3003 RMK A01 T03090172  RH  046%=      5-min Rain = 0
KSP1 101925Z 19012G20KT 31/17 A3003 RMK A01 T03110171  RH  045%=      5-min Rain = 0
KSP1 101930Z 18013G18KT 31/17 A3003 RMK A01 T03110166  RH  044%=      5-min Rain = 0
KSP1 101935Z 18012G18KT 31/17 A3003 RMK A01 T03100166  RH  044%=      5-min Rain = 0
KSP1 101940Z 20012G17KT 31/17 A3003 RMK A01 T03140168  RH  044%=      5-min Rain = 0
KSP1 101945Z 20011G16KT 31/17 A3002 RMK A01 T03110167  RH  044%=      5-min Rain = 0
KSP1 101950Z 18012G19KT 31/16 A3002 RMK A01 T03100164  RH  044%=      5-min Rain = 0
KSP1 101955Z 19011KT 31/16 A3002 RMK A01 T03080163  RH  044%=      5-min Rain = 0
KSP1 102000Z 19011G16KT 31/17 A3002 RMK A01 T03100167  RH  045%=      5-min Rain = 0
KSP1 102005Z 20011G16KT 31/16 A3001 RMK A01 T03090164  RH  044%=      5-min Rain = 0
KSP1 102010Z 21009KT 31/17 A3001 RMK A01 T03080169  RH  045%=      5-min Rain = 0
KSP1 102015Z 18009G14KT 31/17 A3001 RMK A01 T03100165  RH  044%=      5-min Rain = 0
KSP1 102020Z 18010KT 31/16 A3001 RMK A01 T03100160  RH  042%=      5-min Rain = 0
KSP1 102025Z 19012KT 31/16 A30 RMK A01 T03120161  RH  042%=      5-min Rain = 0
KSP1 102030Z 19009KT 31/16 A30 RMK A01 T03130161  RH  042%=      5-min Rain = 0
KSP1 102035Z 18014G20KT 32/16 A30 RMK A01 T03160158  RH  041%=      5-min Rain = 0
KSP1 102040Z 17012G17KT 32/16 A30 RMK A01 T03170158  RH  040%=      5-min Rain = 0
KSP1 102045Z 19011G18KT 32/15 A2999 RMK A01 T03180154  RH  039%=      5-min Rain = 0
KSP1 102050Z 18011G16KT 32/15 A2999 RMK A01 T03210152  RH  038%=      5-min Rain = 0
KSP1 102055Z 19014G20KT 32/15 A2999 RMK A01 T03210149  RH  037%=      5-min Rain = 0
KSP1 102100Z 19013G19KT 32/14 A2999 RMK A01 T03210144  RH  036%=      5-min Rain = 0
KSP1 102105Z 20011KT 32/15 A2999 RMK A01 T03210150  RH  037%=      5-min Rain = 0
KSP1 102110Z 20011G16KT 32/15 A2998 RMK A01 T03210152  RH  038%=      5-min Rain = 0
KSP1 102115Z 19010G15KT 32/15 A2998 RMK A01 T03210148  RH  037%=      5-min Rain = 0
KSP1 102120Z 20012KT 32/15 A2998 RMK A01 T03180151  RH  038%=      5-min Rain = 0
KSP1 102125Z 19009G14KT 32/15 A2998 RMK A01 T03170153  RH  039%=      5-min Rain = 0
KSP1 102130Z 20011G17KT 32/15 A2998 RMK A01 T03170151  RH  038%=      5-min Rain = 0
KSP1 102135Z 19009KT 32/15 A2998 RMK A01 T03180152  RH  038%=      5-min Rain = 0
KSP1 102140Z 19009KT 32/15 A2997 RMK A01 T03180152  RH  039%=      5-min Rain = 0
KSP1 102145Z 20007KT 32/15 A2997 RMK A01 T03180152  RH  038%=      5-min Rain = 0
KSP1 102150Z 20008KT 32/15 A2997 RMK A01 T03200149  RH  037%=      5-min Rain = 0
KSP1 102155Z 17006KT 32/15 A2997 RMK A01 T03200147  RH  037%=      5-min Rain = 0
KSP1 102200Z 19011KT 32/15 A2997 RMK A01 T03210147  RH  036%=      5-min Rain = 0
KSP1 102205Z 20009G14KT 32/15 A2997 RMK A01 T03210147  RH  037%=      5-min Rain = 0
KSP1 102210Z 18008KT 32/15 A2997 RMK A01 T03220147  RH  036%=      5-min Rain = 0
KSP1 102215Z 16009G16KT 32/14 A2996 RMK A01 T03210144  RH  036%=      5-min Rain = 0
KSP1 102220Z 17010G15KT 32/14 A2996 RMK A01 T03190143  RH  036%=      5-min Rain = 0
KSP1 102225Z 18011G16KT 32/14 A2996 RMK A01 T03190142  RH  036%=      5-min Rain = 0
KSP1 102230Z 17011G17KT 32/14 A2996 RMK A01 T03190140  RH  035%=      5-min Rain = 0
KSP1 102235Z 17011KT 32/14 A2996 RMK A01 T03190139  RH  035%=      5-min Rain = 0
KSP1 102240Z 17012G18KT 32/14 A2996 RMK A01 T03190139  RH  035%=      5-min Rain = 0
KSP1 102245Z 17011G17KT 32/14 A2996 RMK A01 T03190137  RH  035%=      5-min Rain = 0
KSP1 102250Z 17012G19KT 32/14 A2996 RMK A01 T03190137  RH  034%=      5-min Rain = 0
KSP1 102255Z 16009KT 32/14 A2996 RMK A01 T03210137  RH  034%=      5-min Rain = 0
KSP1 102300Z 17011G17KT 33/14 A2996 RMK A01 T03260139  RH  034%=      5-min Rain = 0
KSP1 102305Z 16012G17KT 33/14 A2996 RMK A01 T03310139  RH  033%=      5-min Rain = 0
KSP1 102310Z 19013G19KT 33/14 A2996 RMK A01 T03320142  RH  033%=      5-min Rain = 0
KSP1 102315Z 19011KT 33/15 A2996 RMK A01 T03320147  RH  034%=      5-min Rain = 0
KSP1 102320Z 20013G18KT 33/15 A2996 RMK A01 T03260145  RH  035%=      5-min Rain = 0
KSP1 102325Z 19010G17KT 32/15 A2996 RMK A01 T03190145  RH  036%=      5-min Rain = 0
KSP1 102330Z 19010G15KT 32/15 A2996 RMK A01 T03200147  RH  037%=      5-min Rain = 0
KSP1 102335Z 20010G15KT 32/15 A2996 RMK A01 T03170147  RH  037%=      5-min Rain = 0
KSP1 102340Z 19008KT 32/15 A2996 RMK A01 T03170147  RH  037%=      5-min Rain = 0
KSP1 102345Z 19009G14KT 32/14 A2996 RMK A01 T03180143  RH  036%=      5-min Rain = 0
KSP1 102350Z 19010KT 32/15 A2996 RMK A01 T03180145  RH  037%=      5-min Rain = 0
KSP1 102355Z 19011KT 32/14 A2996 RMK A01 T03170143  RH  036%=      5-min Rain = 0
KSP1 110000Z 19009G14KT 32/14 A2997 RMK A01 T03150144  RH  037%=      5-min Rain = 0
KSP1 110005Z 20009KT 31/15 A2996 RMK A01 T03130147  RH  038%=      5-min Rain = 0
KSP1 110010Z 20008KT 31/15 A2996 RMK A01 T03110147  RH  039%=      5-min Rain = 0
KSP1 110015Z 19007KT 31/15 A2997 RMK A01 T03100148  RH  039%=      5-min Rain = 0
KSP1 110020Z 20008KT 31/15 A2997 RMK A01 T03090148  RH  039%=      5-min Rain = 0
KSP1 110025Z 20007KT 31/15 A2997 RMK A01 T03070149  RH  040%=      5-min Rain = 0
KSP1 110030Z 21009G14KT 31/15 A2997 RMK A01 T03050152  RH  041%=      5-min Rain = 0
KSP1 110035Z 21008KT 30/16 A2997 RMK A01 T02980159  RH  045%=      5-min Rain = 0
KSP1 110040Z 21006KT 29/16 A2997 RMK A01 T02940160  RH  046%=      5-min Rain = 0
KSP1 110045Z 21005KT 29/16 A2997 RMK A01 T02920160  RH  047%=      5-min Rain = 0
KSP1 110050Z 21005KT 29/16 A2997 RMK A01 T02900159  RH  047%=      5-min Rain = 0
KSP1 110055Z 20005KT 29/16 A2997 RMK A01 T02890157  RH  047%=      5-min Rain = 0
KSP1 110100Z 20004KT 29/16 A2997 RMK A01 T02870158  RH  048%=      5-min Rain = 0
KSP1 110105Z 20004KT 29/16 A2997 RMK A01 T02850158  RH  048%=      5-min Rain = 0
KSP1 110110Z 19004KT 28/16 A2997 RMK A01 T02830160  RH  049%=      5-min Rain = 0
KSP1 110115Z 19004KT 28/16 A2997 RMK A01 T02820160  RH  050%=      5-min Rain = 0
KSP1 110120Z 18003KT 28/16 A2998 RMK A01 T02810158  RH  050%=      5-min Rain = 0
KSP1 110125Z 17003KT 28/16 A2998 RMK A01 T02790160  RH  051%=      5-min Rain = 0
KSP1 110130Z 18004KT 28/16 A2998 RMK A01 T02760160  RH  051%=      5-min Rain = 0
KSP1 110135Z 19004KT 28/16 A2998 RMK A01 T02750161  RH  052%=      5-min Rain = 0
KSP1 110140Z 18004KT 27/16 A2998 RMK A01 T02740162  RH  053%=      5-min Rain = 0
KSP1 110145Z 19004KT 27/16 A2998 RMK A01 T02720162  RH  053%=      5-min Rain = 0
KSP1 110150Z 18004KT 27/16 A2998 RMK A01 T02700163  RH  054%=      5-min Rain = 0
KSP1 110155Z 18004KT 27/16 A2999 RMK A01 T02700163  RH  055%=      5-min Rain = 0
KSP1 110200Z 19004KT 27/16 A2999 RMK A01 T02700164  RH  055%=      5-min Rain = 0
KSP1 110205Z 20005KT 27/17 A2999 RMK A01 T02680165  RH  056%=      5-min Rain = 0
KSP1 110210Z 20006KT 27/16 A30 RMK A01 T02690163  RH  055%=      5-min Rain = 0
KSP1 110215Z 20005KT 27/16 A30 RMK A01 T02700161  RH  054%=      5-min Rain = 0
KSP1 110220Z 19005KT 27/16 A30 RMK A01 T02700162  RH  054%=      5-min Rain = 0
KSP1 110225Z 19004KT 27/16 A30 RMK A01 T02700162  RH  054%=      5-min Rain = 0
KSP1 110230Z 18004KT 27/16 A30 RMK A01 T02710163  RH  054%=      5-min Rain = 0
KSP1 110235Z 17004KT 27/16 A30 RMK A01 T02690164  RH  055%=      5-min Rain = 0
KSP1 110240Z 16004KT 27/16 A30 RMK A01 T02670164  RH  056%=      5-min Rain = 0
KSP1 110245Z 17003KT 27/17 A3001 RMK A01 T02660166  RH  057%=      5-min Rain = 0
KSP1 110250Z 16004KT 27/17 A3001 RMK A01 T02650165  RH  057%=      5-min Rain = 0
KSP1 110255Z 15004KT 27/16 A3001 RMK A01 T02650163  RH  056%=      5-min Rain = 0
KSP1 110300Z 15004KT 27/16 A3001 RMK A01 T02650163  RH  056%=      5-min Rain = 0
KSP1 110305Z 16004KT 26/16 A3001 RMK A01 T02630163  RH  057%=      5-min Rain = 0
KSP1 110310Z 15003KT 26/16 A3001 RMK A01 T02630163  RH  057%=      5-min Rain = 0
KSP1 110315Z 15004KT 26/16 A3002 RMK A01 T02610162  RH  057%=      5-min Rain = 0
KSP1 110320Z 16003KT 26/16 A3002 RMK A01 T02600163  RH  058%=      5-min Rain = 0
KSP1 110325Z 16004KT 26/16 A3002 RMK A01 T02580163  RH  059%=      5-min Rain = 0
KSP1 110330Z 16004KT 26/16 A3002 RMK A01 T02570162  RH  058%=      5-min Rain = 0
KSP1 110335Z 16005KT 26/16 A3002 RMK A01 T02580161  RH  058%=      5-min Rain = 0
KSP1 110340Z 16004KT 26/16 A3003 RMK A01 T02590160  RH  057%=      5-min Rain = 0
KSP1 110345Z 16004KT 26/16 A3003 RMK A01 T02580160  RH  057%=      5-min Rain = 0
KSP1 110350Z 16004KT 26/16 A3003 RMK A01 T02560160  RH  058%=      5-min Rain = 0
KSP1 110355Z 16005KT 26/16 A3003 RMK A01 T02570158  RH  057%=      5-min Rain = 0
KSP1 110400Z 17005KT 26/16 A3003 RMK A01 T02570159  RH  057%=      5-min Rain = 0
KSP1 110405Z 16004KT 26/16 A3003 RMK A01 T02580158  RH  057%=      5-min Rain = 0
KSP1 110410Z 17004KT 26/16 A3003 RMK A01 T02580158  RH  057%=      5-min Rain = 0
KSP1 110415Z 16005KT 26/16 A3003 RMK A01 T02570159  RH  057%=      5-min Rain = 0
KSP1 110420Z 17004KT 26/16 A3003 RMK A01 T02550159  RH  058%=      5-min Rain = 0
KSP1 110425Z 17004KT 25/16 A3003 RMK A01 T02540159  RH  059%=      5-min Rain = 0
KSP1 110430Z 17004KT 25/16 A3003 RMK A01 T02520159  RH  059%=      5-min Rain = 0
KSP1 110435Z 17004KT 25/16 A3003 RMK A01 T02510160  RH  060%=      5-min Rain = 0
KSP1 110440Z 16004KT 25/16 A3003 RMK A01 T02500161  RH  060%=      5-min Rain = 0
KSP1 110445Z 15004KT 25/16 A3003 RMK A01 T02500161  RH  061%=      5-min Rain = 0
KSP1 110450Z 13004KT 25/16 A3004 RMK A01 T02500161  RH  061%=      5-min Rain = 0
KSP1 110455Z 12004KT 25/16 A3004 RMK A01 T02520158  RH  059%=      5-min Rain = 0

Page generated in 0.0237 seconds.